Time;durP1;ratioP1;P1;durP2;ratioP2;P2;SDS_P1;SDS_P2;PMS_P1;PMS_P2;Temp;Humidity;BMP_temperature;BMP_pressure;BME280_temperature;BME280_humidity;BME280_pressure;Samples;Min_cycle;Max_cycle;Signal;HPM_P1;HPM_P2
2021/03/20 00:02:21;;;;;;;18.55;12.43;;;;;;;8.68;100.00;103479.78;5071360;28;20085;-70
2021/03/20 00:04:46;;;;;;;16.13;11.63;;;;;;;8.66;100.00;103482.66;5071283;28;20086;-68
2021/03/20 00:07:12;;;;;;;17.25;12.32;;;;;;;8.65;100.00;103478.22;5071199;28;20036;-69
2021/03/20 00:09:38;;;;;;;17.90;12.65;;;;;;;8.65;100.00;103475.50;5071482;28;20498;-68
2021/03/20 00:12:04;;;;;;;19.08;12.82;;;;;;;8.64;100.00;103481.97;5071341;28;20036;-67
2021/03/20 00:14:30;;;;;;;17.00;12.60;;;;;;;8.63;100.00;103479.41;5053143;28;20040;-69
2021/03/20 00:16:56;;;;;;;18.25;13.02;;;;;;;8.63;100.00;103482.13;5071157;28;20440;-68
2021/03/20 00:19:22;;;;;;;21.73;13.98;;;;;;;8.61;100.00;103485.03;5071201;28;20162;-67
2021/03/20 00:21:47;;;;;;;21.40;13.57;;;;;;;8.59;100.00;103484.34;5070914;28;20049;-68
2021/03/20 00:24:13;;;;;;;19.50;14.48;;;;;;;8.58;100.00;103479.91;5070904;28;20028;-68
2021/03/20 00:26:39;;;;;;;18.95;12.88;;;;;;;8.58;100.00;103488.06;5053304;28;20040;-70
2021/03/20 00:29:06;;;;;;;22.05;14.18;;;;;;;8.58;100.00;103482.63;5070802;28;20525;-69
2021/03/20 00:31:32;;;;;;;21.95;13.77;;;;;;;8.57;100.00;103486.38;5070974;28;20036;-69
2021/03/20 00:33:58;;;;;;;22.67;14.10;;;;;;;8.55;100.00;103488.41;5070920;28;20113;-67
2021/03/20 00:36:23;;;;;;;18.48;12.88;;;;;;;8.55;100.00;103491.13;5070866;28;20494;-67
2021/03/20 00:38:50;;;;;;;17.50;11.85;;;;;;;8.53;100.00;103501.34;5070874;28;20028;-68
2021/03/20 00:41:15;;;;;;;22.58;13.32;;;;;;;8.53;100.00;103511.38;5070818;28;20114;-69
2021/03/20 00:43:41;;;;;;;19.45;13.63;;;;;;;8.54;100.00;103510.38;5052904;28;20041;-68
2021/03/20 00:46:09;;;;;;;19.15;13.75;;;;;;;8.57;100.00;103496.41;5070740;28;20032;-69
2021/03/20 00:48:41;;;;;;;19.63;13.75;;;;;;;8.58;100.00;103498.97;5070636;28;20037;-71
2021/03/20 00:51:09;;;;;;;22.40;13.60;;;;;;;8.58;100.00;103504.44;5070820;28;20040;-68
2021/03/20 00:53:35;;;;;;;19.00;14.40;;;;;;;8.58;100.00;103504.44;5070646;28;20040;-68
2021/03/20 00:56:01;;;;;;;21.05;14.38;;;;;;;8.57;100.00;103502.72;5070606;28;20040;-68
2021/03/20 00:58:26;;;;;;;18.80;14.05;;;;;;;8.58;100.00;103509.03;5070704;28;20390;-69
2021/03/20 01:00:59;;;;;;;19.27;14.25;;;;;;;8.58;100.00;103520.78;5052749;28;20482;-67
2021/03/20 01:03:25;;;;;;;19.65;13.48;;;;;;;8.56;100.00;103506.47;5070588;28;20035;-68
2021/03/20 01:05:51;;;;;;;18.42;13.38;;;;;;;8.56;100.00;103511.06;5070531;28;20048;-70
2021/03/20 01:08:17;;;;;;;15.85;11.60;;;;;;;8.52;100.00;103499.63;5070535;28;20037;-67
2021/03/20 01:10:43;;;;;;;19.33;12.73;;;;;;;8.52;100.00;103506.97;5070587;28;20502;-69
2021/03/20 01:13:10;;;;;;;16.23;12.43;;;;;;;8.50;100.00;103512.53;5070428;28;20041;-69
2021/03/20 01:15:36;;;;;;;19.52;12.35;;;;;;;8.51;100.00;103511.56;5070601;28;20093;-69
2021/03/20 01:18:02;;;;;;;17.13;11.45;;;;;;;8.52;100.00;103510.53;5070462;28;20041;-68
2021/03/20 01:20:28;;;;;;;17.33;11.85;;;;;;;8.55;100.00;103504.75;5070292;28;20052;-69
2021/03/20 01:22:54;;;;;;;19.23;12.60;;;;;;;8.57;100.00;103507.31;5070491;28;20110;-69
2021/03/20 01:25:20;;;;;;;18.00;12.05;;;;;;;8.56;100.00;103498.28;5070397;28;20036;-69
2021/03/20 01:27:50;;;;;;;17.85;12.18;;;;;;;8.59;100.00;103492.50;5070261;28;20064;-68
2021/03/20 01:30:22;;;;;;;19.02;13.18;;;;;;;8.62;100.00;103499.50;5070547;28;20045;-67
2021/03/20 01:32:47;;;;;;;20.30;13.32;;;;;;;8.63;100.00;103496.59;5070414;28;20083;-67
2021/03/20 01:35:13;;;;;;;18.50;11.75;;;;;;;8.64;100.00;103492.00;5070236;28;20076;-68
2021/03/20 01:37:39;;;;;;;17.30;12.60;;;;;;;8.66;100.00;103501.72;5073419;28;20039;-69
2021/03/20 01:40:07;;;;;;;17.48;12.35;;;;;;;8.67;100.00;103503.41;5056210;28;20033;-70
2021/03/20 01:42:33;;;;;;;19.52;12.52;;;;;;;8.69;100.00;103506.88;5074024;28;20040;-69
2021/03/20 01:45:08;;;;;;;17.52;12.95;;;;;;;8.68;100.00;103504.31;5073999;28;20089;-68
2021/03/20 01:47:41;;;;;;;19.17;13.90;;;;;;;8.68;100.00;103510.59;5055979;28;20058;-68
2021/03/20 01:50:14;;;;;;;20.90;14.07;;;;;;;8.68;100.00;103502.44;5055951;28;20064;-68
2021/03/20 01:52:42;;;;;;;22.05;15.10;;;;;;;8.67;100.00;103508.88;5073792;28;20494;-68
2021/03/20 01:55:15;;;;;;;24.45;16.23;;;;;;;8.66;100.00;103500.88;5074074;28;20166;-67
2021/03/20 01:57:45;;;;;;;22.85;15.70;;;;;;;8.59;100.00;103506.13;5055965;28;20367;-69
2021/03/20 02:00:24;;;;;;;29.60;17.73;;;;;;;8.62;100.00;103515.84;5074089;28;20032;-67
2021/03/20 02:02:50;;;;;;;26.15;15.73;;;;;;;8.60;100.00;103513.28;5073569;28;20111;-68
2021/03/20 02:05:21;;;;;;;24.63;15.90;;;;;;;8.59;100.00;103511.56;5055790;28;20496;-67
2021/03/20 02:07:47;;;;;;;22.05;14.98;;;;;;;8.57;100.00;103519.06;5073543;28;20109;-68
2021/03/20 02:10:14;;;;;;;25.08;15.75;;;;;;;8.58;100.00;103519.91;5073573;28;20053;-68
2021/03/20 02:12:44;;;;;;;22.58;14.95;;;;;;;8.57;100.00;103516.34;5073455;28;20165;-68
2021/03/20 02:15:21;;;;;;;22.27;14.40;;;;;;;8.58;100.00;103519.91;5073498;28;20040;-67
2021/03/20 02:18:24;;;;;;;21.92;14.50;;;;;;;8.60;100.00;103526.91;5073720;28;20059;-68
2021/03/20 02:21:11;;;;;;;21.55;14.15;;;;;;;8.64;100.00;103530.16;5055464;28;20127;-68
2021/03/20 02:23:58;;;;;;;24.10;15.15;;;;;;;8.65;100.00;103526.41;5073229;28;20036;-68
2021/03/20 02:26:56;;;;;;;20.77;14.20;;;;;;;8.67;100.00;103525.22;5073473;28;20089;-69
2021/03/20 02:29:59;;;;;;;22.17;14.98;;;;;;;8.64;100.00;103516.53;5073371;28;20031;-69
2021/03/20 02:33:04;;;;;;;21.30;13.90;;;;;;;8.65;100.00;103516.38;5073152;28;20128;-70
2021/03/20 02:36:07;;;;;;;20.60;13.35;;;;;;;8.69;100.00;103520.50;5022434;28;20048;-68
2021/03/20 02:38:35;;;;;;;20.42;13.80;;;;;;;8.70;100.00;103519.47;5073169;28;20060;-68
2021/03/20 02:41:09;;;;;;;21.05;13.75;;;;;;;8.71;100.00;103521.19;5072962;28;20043;-68
2021/03/20 02:43:53;;;;;;;21.48;15.25;;;;;;;8.71;100.00;103515.72;5073025;28;20025;-67
2021/03/20 02:46:35;;;;;;;22.10;14.30;;;;;;;8.70;100.00;103514.03;5072973;28;20485;-68
2021/03/20 02:49:11;;;;;;;22.55;14.45;;;;;;;8.70;100.00;103508.56;5071639;28;20135;-68
2021/03/20 02:51:51;;;;;;;21.73;14.35;;;;;;;8.70;100.00;103499.53;5072882;28;20094;-67
2021/03/20 02:54:29;;;;;;;24.77;14.95;;;;;;;8.70;100.00;103503.13;5072839;28;20041;-69
2021/03/20 02:57:19;;;;;;;21.20;14.63;;;;;;;8.70;100.00;103503.13;5072648;28;20036;-68
2021/03/20 02:59:51;;;;;;;23.10;16.45;;;;;;;8.71;100.00;103504.81;5072826;28;20036;-68
2021/03/20 03:02:18;;;;;;;20.65;15.13;;;;;;;8.69;100.00;103501.41;5072581;28;20032;-67
2021/03/20 03:04:56;;;;;;;23.60;15.95;;;;;;;8.70;100.00;103497.66;5072535;28;20118;-70
2021/03/20 03:07:29;;;;;;;22.33;15.35;;;;;;;8.70;100.00;103494.94;5072784;28;20054;-68
2021/03/20 03:10:01;;;;;;;24.20;15.55;;;;;;;8.69;100.00;103498.69;5072560;28;20486;-67
2021/03/20 03:12:34;;;;;;;22.83;16.20;;;;;;;8.68;100.00;103494.25;5072337;28;20402;-69
2021/03/20 03:15:09;;;;;;;24.13;16.40;;;;;;;8.70;100.00;103497.66;5072376;28;20051;-67
2021/03/20 03:17:40;;;;;;;24.50;15.20;;;;;;;8.70;100.00;103486.78;5072407;28;20394;-69
2021/03/20 03:20:15;;;;;;;20.33;13.90;;;;;;;8.70;100.00;103486.78;5072202;28;20502;-67
2021/03/20 03:22:50;;;;;;;19.10;13.40;;;;;;;8.69;100.00;103490.53;5072062;28;20395;-69
2021/03/20 03:25:20;;;;;;;16.75;12.38;;;;;;;8.69;100.00;103495.97;5072277;28;20181;-68
2021/03/20 03:27:50;;;;;;;18.98;13.27;;;;;;;8.70;100.00;103497.66;5072072;28;20032;-68
2021/03/20 03:30:19;;;;;;;17.20;12.85;;;;;;;8.72;100.00;103492.91;5072112;28;20040;-68
2021/03/20 03:32:48;;;;;;;16.30;12.18;;;;;;;8.74;100.00;103490.88;5071967;28;20483;-67
2021/03/20 03:35:38;;;;;;;17.05;11.95;;;;;;;8.75;100.00;103498.03;5072003;28;20165;-69
2021/03/20 03:38:09;;;;;;;17.55;12.43;;;;;;;8.76;100.00;103480.66;5071919;28;20395;-68
2021/03/20 03:41:09;;;;;;;15.75;11.85;;;;;;;8.76;100.00;103497.00;5072398;28;20391;-69
2021/03/20 03:43:35;;;;;;;16.08;11.88;;;;;;;8.77;100.00;103503.31;5054417;28;20044;-68
2021/03/20 03:46:02;;;;;;;13.18;9.80;;;;;;;8.79;100.00;103500.41;5071563;28;20048;-68
2021/03/20 03:48:28;;;;;;;14.65;10.68;;;;;;;8.77;100.00;103489.69;5071628;28;20470;-70
2021/03/20 03:50:55;;;;;;;15.18;11.05;;;;;;;8.78;100.00;103494.09;5071717;28;20044;-69
2021/03/20 03:53:27;;;;;;;16.23;10.90;;;;;;;8.78;100.00;103494.09;5071425;28;20032;-67
2021/03/20 03:55:57;;;;;;;13.70;10.13;;;;;;;8.80;100.00;103491.22;5071515;28;20044;-69
2021/03/20 03:58:36;;;;;;;15.20;10.63;;;;;;;8.80;100.00;103492.06;5071578;28;20035;-68
2021/03/20 04:01:33;;;;;;;14.15;10.48;;;;;;;8.81;100.00;103491.03;5071674;28;20390;-69
2021/03/20 04:04:08;;;;;;;14.30;10.57;;;;;;;8.82;100.00;103489.16;5071228;28;20346;-67
2021/03/20 04:06:48;;;;;;;13.25;10.18;;;;;;;8.83;100.00;103496.31;5071472;28;20110;-68
2021/03/20 04:09:51;;;;;;;14.43;10.73;;;;;;;8.82;100.00;103483.72;5071235;28;20032;-69
2021/03/20 04:12:20;;;;;;;14.38;10.48;;;;;;;8.83;100.00;103496.31;5071065;28;20052;-69
2021/03/20 04:15:01;;;;;;;15.82;10.57;;;;;;;8.83;100.00;103496.31;5071283;28;20475;-67
2021/03/20 04:17:59;;;;;;;17.40;11.50;;;;;;;8.85;100.00;103505.19;5071207;28;20036;-68
2021/03/20 04:20:44;;;;;;;20.02;12.80;;;;;;;8.88;100.00;103504.88;5070945;28;20072;-70
2021/03/20 04:23:30;;;;;;;20.40;13.30;;;;;;;8.89;100.00;103506.59;5071111;28;20119;-68
2021/03/20 04:26:22;;;;;;;19.15;13.10;;;;;;;8.88;100.00;103504.88;5071070;28;20036;-68
2021/03/20 04:28:54;;;;;;;20.80;13.77;;;;;;;8.88;100.00;103510.34;5066888;28;20040;-69
2021/03/20 04:31:46;;;;;;;21.20;13.98;;;;;;;8.88;100.00;103515.78;5070967;28;20475;-69
2021/03/20 04:34:17;;;;;;;15.50;12.13;;;;;;;8.88;100.00;103521.25;5070914;28;20066;-67
2021/03/20 04:36:57;;;;;;;15.93;11.73;;;;;;;8.87;100.00;103517.66;5070938;28;20082;-68
2021/03/20 04:39:25;;;;;;;19.27;13.25;;;;;;;8.86;100.00;103518.69;5071469;28;20025;-67
2021/03/20 04:41:52;;;;;;;16.83;13.82;;;;;;;8.85;100.00;103516.09;5070841;28;20486;-70
2021/03/20 04:44:20;;;;;;;19.38;13.38;;;;;;;8.84;100.00;103517.09;5052599;28;20445;-69
2021/03/20 04:46:46;;;;;;;21.58;14.50;;;;;;;8.83;100.00;103512.69;5052682;28;20068;-70
2021/03/20 04:49:30;;;;;;;20.67;13.75;;;;;;;8.83;100.00;103523.59;5052650;28;20082;-68
2021/03/20 04:52:17;;;;;;;21.92;14.30;;;;;;;8.81;100.00;103526.47;5052575;28;20250;-67
2021/03/20 04:54:43;;;;;;;20.45;14.85;;;;;;;8.82;100.00;103521.88;5070817;28;20032;-69
2021/03/20 04:57:09;;;;;;;20.70;14.88;;;;;;;8.83;100.00;103523.59;5070735;28;20063;-70
2021/03/20 04:59:55;;;;;;;21.30;13.48;;;;;;;8.83;100.00;103520.84;5070650;28;20463;-70
2021/03/20 05:02:23;;;;;;;23.10;15.00;;;;;;;8.84;100.00;103525.28;5070641;28;20470;-70
2021/03/20 05:04:52;;;;;;;20.75;14.75;;;;;;;8.84;100.00;103519.84;5070612;28;20040;-70
2021/03/20 05:07:19;;;;;;;25.77;15.77;;;;;;;8.84;100.00;103519.84;5070468;28;20120;-68
2021/03/20 05:09:45;;;;;;;21.48;14.38;;;;;;;8.84;100.00;103517.97;5070795;28;20459;-70
2021/03/20 05:12:17;;;;;;;22.25;15.52;;;;;;;8.84;100.00;103519.84;5073055;28;20394;-68
2021/03/20 05:14:51;;;;;;;21.30;14.23;;;;;;;8.83;100.00;103512.69;5074634;28;20111;-68
2021/03/20 05:17:19;;;;;;;25.55;16.92;;;;;;;8.83;100.00;103518.13;5074641;28;20029;-68
2021/03/20 05:19:45;;;;;;;22.95;15.18;;;;;;;8.82;100.00;103510.97;5074830;28;20032;-69
2021/03/20 05:22:26;;;;;;;20.95;14.90;;;;;;;8.81;100.00;103514.72;5074232;28;20041;-69
2021/03/20 05:24:54;;;;;;;21.70;14.50;;;;;;;8.82;100.00;103521.88;5074523;28;20047;-67
2021/03/20 05:27:26;;;;;;;23.98;15.77;;;;;;;8.82;100.00;103527.31;5056416;28;20060;-68
2021/03/20 05:29:52;;;;;;;22.27;16.05;;;;;;;8.80;100.00;103529.38;5074452;28;20043;-70
2021/03/20 05:32:25;;;;;;;25.13;16.10;;;;;;;8.79;100.00;103533.13;5074245;28;20032;-68
2021/03/20 05:34:53;;;;;;;23.60;15.98;;;;;;;8.77;100.00;103536.84;5074358;28;20032;-70
2021/03/20 05:37:31;;;;;;;25.40;16.90;;;;;;;8.76;100.00;103529.69;5056374;28;20098;-68
2021/03/20 05:39:57;;;;;;;22.30;15.15;;;;;;;8.76;100.00;103534.31;5056171;28;20123;-69
2021/03/20 05:42:32;;;;;;;23.33;16.40;;;;;;;8.77;100.00;103541.47;5074001;28;20471;-68
2021/03/20 05:45:16;;;;;;;;;;;;;;;8.76;100.00;103535.16;5074618;28;20534;-67
2021/03/20 05:47:57;;;;;;;24.92;15.32;;;;;;;8.74;100.00;103537.19;5073885;28;19939;-69
2021/03/20 05:50:32;;;;;;;24.40;15.88;;;;;;;8.74;100.00;103534.47;5074089;28;20056;-68
2021/03/20 05:53:16;;;;;;;26.48;17.42;;;;;;;8.72;100.00;103535.66;5073877;28;20127;-69
2021/03/20 05:55:55;;;;;;;26.23;17.00;;;;;;;8.70;100.00;103543.16;5073849;28;20032;-69
2021/03/20 05:58:34;;;;;;;26.08;17.08;;;;;;;8.68;100.00;103537.00;5073796;28;20032;-68
2021/03/20 06:01:08;;;;;;;27.83;17.90;;;;;;;8.66;100.00;103550.75;5073838;28;20158;-68
2021/03/20 06:03:55;;;;;;;30.33;17.88;;;;;;;8.67;100.00;103547.03;5073673;28;20181;-68
2021/03/20 06:06:41;;;;;;;28.25;18.30;;;;;;;8.67;100.00;103552.47;5073933;28;20036;-68
2021/03/20 06:09:45;;;;;;;27.27;17.58;;;;;;;8.67;100.00;103557.91;5073607;28;20086;-68
2021/03/20 06:12:53;;;;;;;27.63;16.80;;;;;;;8.68;100.00;103565.09;5073466;28;20037;-67
2021/03/20 06:15:40;;;;;;;30.98;18.25;;;;;;;8.67;100.00;103557.91;5073069;28;20086;-68
2021/03/20 06:18:09;;;;;;;27.90;17.88;;;;;;;8.69;100.00;103555.06;5073517;28;20028;-68
2021/03/20 06:20:57;;;;;;;28.70;18.15;;;;;;;8.69;100.00;103560.50;5073265;28;20044;-68
2021/03/20 06:23:40;;;;;;;26.98;16.95;;;;;;;8.68;100.00;103562.38;5073187;28;20032;-68
2021/03/20 06:26:22;;;;;;;27.67;17.23;;;;;;;8.69;100.00;103558.63;5073347;28;20040;-69
2021/03/20 06:28:50;;;;;;;24.42;16.33;;;;;;;8.69;100.00;103564.09;5073229;28;20036;-69
2021/03/20 06:31:44;;;;;;;24.27;16.67;;;;;;;8.71;100.00;103559.31;5073407;28;20028;-69
2021/03/20 06:34:40;;;;;;;24.08;15.95;;;;;;;8.72;100.00;103563.75;5070084;28;20052;-69
2021/03/20 06:37:08;;;;;;;26.23;16.67;;;;;;;8.74;100.00;103553.53;5073161;28;20024;-69
2021/03/20 06:39:39;;;;;;;25.17;16.40;;;;;;;8.74;100.00;103558.13;5073241;28;20041;-69
2021/03/20 06:42:23;;;;;;;24.90;17.08;;;;;;;8.75;100.00;103563.44;5055178;28;20036;-68
2021/03/20 06:44:59;;;;;;;25.15;16.77;;;;;;;8.75;100.00;103560.69;5072979;28;20047;-68
2021/03/20 06:47:28;;;;;;;24.10;15.95;;;;;;;8.77;100.00;103558.66;5072832;28;20156;-69
2021/03/20 06:50:01;;;;;;;23.25;15.23;;;;;;;8.79;100.00;103557.66;5055009;28;20036;-69
2021/03/20 06:52:29;;;;;;;24.67;16.60;;;;;;;8.79;100.00;103561.22;5072754;28;20040;-69
2021/03/20 06:54:58;;;;;;;29.33;17.17;;;;;;;8.80;100.00;103554.75;5072757;28;20037;-67
2021/03/20 06:57:24;;;;;;;22.83;16.08;;;;;;;8.82;100.00;103562.75;5072676;28;20064;-68
2021/03/20 06:59:53;;;;;;;27.13;17.38;;;;;;;8.83;100.00;103567.19;5072791;28;20064;-68
2021/03/20 07:02:41;;;;;;;23.02;16.33;;;;;;;8.85;100.00;103568.75;5072501;28;20070;-68
2021/03/20 07:05:20;;;;;;;26.58;17.65;;;;;;;8.87;100.00;103569.44;5072677;28;20036;-67
2021/03/20 07:07:59;;;;;;;24.75;16.88;;;;;;;8.90;100.00;103579.16;5072570;28;20032;-68
2021/03/20 07:10:29;;;;;;;27.33;17.27;;;;;;;8.89;100.00;103578.31;5072538;28;20033;-69
2021/03/20 07:13:17;;;;;;;28.15;16.90;;;;;;;8.93;100.00;103584.28;5072414;28;20115;-68
2021/03/20 07:15:44;;;;;;;24.83;16.98;;;;;;;8.96;100.00;103589.41;5072466;28;20033;-68
2021/03/20 07:18:20;;;;;;;26.65;17.17;;;;;;;8.96;100.00;103592.97;5072308;28;20043;-69
2021/03/20 07:20:45;;;;;;;25.92;16.98;;;;;;;8.98;100.00;103603.72;5072339;28;20396;-67
2021/03/20 07:23:16;;;;;;;28.20;17.98;;;;;;;9.00;100.00;103599.81;5072195;28;20036;-69
2021/03/20 07:25:42;;;;;;;30.13;17.92;;;;;;;9.04;100.00;103592.19;5072127;28;20033;-70
2021/03/20 07:28:07;;;;;;;26.67;16.63;;;;;;;9.07;100.00;103586.38;5072099;28;20043;-67
2021/03/20 07:30:50;;;;;;;28.58;19.30;;;;;;;9.09;100.00;103595.25;5072066;28;20032;-69
2021/03/20 07:33:30;;;;;;;30.42;18.17;;;;;;;9.12;100.00;103592.19;5053814;28;20029;-68
2021/03/20 07:36:35;;;;;;;31.30;17.70;;;;;;;9.16;100.00;103592.72;5071827;28;20063;-69
2021/03/20 07:39:09;;;;;;;28.10;17.83;;;;;;;9.21;100.00;103582.19;5072057;28;20032;-68
2021/03/20 07:41:48;;;;;;;29.60;18.02;;;;;;;9.23;100.00;103581.00;5071872;28;20040;-69
2021/03/20 07:44:14;;;;;;;26.35;16.10;;;;;;;9.28;100.00;103585.94;5071685;28;20039;-70
2021/03/20 07:46:40;;;;;;;25.33;16.77;;;;;;;9.31;100.00;103582.88;5071705;28;20040;-69
2021/03/20 07:49:25;;;;;;;26.02;17.23;;;;;;;9.36;100.00;103581.34;5071702;28;20033;-68
2021/03/20 07:52:00;;;;;;;26.05;17.58;;;;;;;9.41;100.00;103588.19;5071685;28;20067;-67
2021/03/20 07:54:37;;;;;;;24.98;16.67;;;;;;;9.45;100.00;103586.81;5071639;28;20044;-67
2021/03/20 07:57:15;;;;;;;25.05;16.63;;;;;;;9.47;100.00;103592.97;5071508;28;20509;-67
2021/03/20 07:59:44;;;;;;;25.23;17.55;;;;;;;9.49;100.00;103596.38;5053482;28;20050;-68
2021/03/20 08:02:25;;;;;;;25.40;16.60;;;;;;;9.52;100.00;103594.16;5071406;28;20032;-68
2021/03/20 08:05:21;;;;;;;27.20;16.70;;;;;;;9.57;100.00;103588.22;5071592;28;20135;-68
2021/03/20 08:07:51;;;;;;;25.60;17.00;;;;;;;9.60;100.00;103593.34;5071116;28;20032;-68
2021/03/20 08:10:34;;;;;;;28.15;17.25;;;;;;;9.64;100.00;103597.44;5071366;28;20032;-67
2021/03/20 08:13:41;;;;;;;27.73;17.10;;;;;;;9.69;100.00;103597.75;5071155;28;20047;-68
2021/03/20 08:16:07;;;;;;;28.05;17.95;;;;;;;9.71;100.00;103601.19;5071063;28;20060;-68
2021/03/20 08:18:34;;;;;;;27.33;17.50;;;;;;;9.73;100.00;103599.16;5053224;28;20033;-68
2021/03/20 08:21:15;;;;;;;26.50;16.80;;;;;;;9.75;100.00;103608.03;5070986;28;20056;-67
2021/03/20 08:24:02;;;;;;;26.08;16.67;;;;;;;9.76;100.00;103604.28;5071029;28;20024;-70
2021/03/20 08:26:27;;;;;;;28.63;18.10;;;;;;;9.77;100.00;103611.44;5071153;28;20158;-68
2021/03/20 08:29:06;;;;;;;23.77;15.95;;;;;;;9.77;100.00;103610.59;5071013;28;20075;-68
2021/03/20 08:31:59;;;;;;;26.00;17.48;;;;;;;9.79;100.00;103623.03;5071098;28;20111;-67
2021/03/20 08:34:44;;;;;;;26.75;16.88;;;;;;;9.81;100.00;103623.72;5070862;28;20054;-69
2021/03/20 08:37:39;;;;;;;25.50;16.25;;;;;;;9.78;100.00;103621.34;5071014;28;20032;-68
2021/03/20 08:40:26;;;;;;;26.10;16.30;;;;;;;9.82;100.00;103625.44;5070913;28;20059;-70
2021/03/20 08:43:10;;;;;;;26.30;16.00;;;;;;;9.80;100.00;103627.47;5052967;28;20062;-67
2021/03/20 08:45:49;;;;;;;28.45;16.88;;;;;;;9.80;100.00;103630.22;5069959;28;20028;-68
2021/03/20 08:48:31;;;;;;;24.65;16.58;;;;;;;9.79;100.00;103631.22;5070969;28;20036;-67
2021/03/20 08:51:21;;;;;;;25.52;16.17;;;;;;;9.76;100.00;103631.56;5052816;28;20436;-69
2021/03/20 08:54:00;;;;;;;23.15;15.77;;;;;;;9.77;100.00;103629.69;5070632;28;20463;-69
2021/03/20 08:56:31;;;;;;;26.27;16.27;;;;;;;9.76;100.00;103628.84;5070767;28;20032;-67
2021/03/20 08:58:57;;;;;;;26.35;16.75;;;;;;;9.79;100.00;103633.09;5070835;28;20059;-68
2021/03/20 09:01:39;;;;;;;26.02;16.73;;;;;;;9.80;100.00;103632.94;5052819;28;20411;-69
2021/03/20 09:04:23;;;;;;;26.25;16.75;;;;;;;9.82;100.00;103630.03;5070519;28;20032;-69
2021/03/20 09:07:11;;;;;;;28.45;17.10;;;;;;;9.86;100.00;103625.94;5070634;28;20071;-67
2021/03/20 09:09:45;;;;;;;24.70;15.45;;;;;;;9.92;100.00;103625.28;5070584;28;20051;-68
2021/03/20 09:12:27;;;;;;;28.15;17.20;;;;;;;9.98;100.00;103613.66;5035599;28;20102;-67
2021/03/20 09:14:53;;;;;;;26.95;16.27;;;;;;;10.05;100.00;103619.28;5070514;28;20530;-68
2021/03/20 09:17:49;;;;;;;28.67;18.00;;;;;;;10.10;100.00;103623.22;5070790;28;20041;-68
2021/03/20 09:20:24;;;;;;;26.05;16.90;;;;;;;10.16;100.00;103616.22;5049030;28;20049;-68
2021/03/20 09:22:51;;;;;;;26.05;16.67;;;;;;;10.23;100.00;103620.84;5070463;28;20033;-68
2021/03/20 09:25:39;;;;;;;27.27;17.27;;;;;;;10.28;100.00;103620.34;5070395;28;20036;-69
2021/03/20 09:28:08;;;;;;;26.15;15.80;;;;;;;10.33;100.00;103628.88;5070279;28;20036;-67
2021/03/20 09:30:53;;;;;;;23.60;15.07;;;;;;;10.34;100.00;103624.25;5070337;28;20039;-67
2021/03/20 09:33:27;;;;;;;26.25;15.23;;;;;;;10.34;100.00;103618.81;5070051;28;20537;-69
2021/03/20 09:35:56;;;;;;;23.83;15.73;;;;;;;10.35;100.00;103610.44;5069786;28;20044;-67
2021/03/20 09:38:34;;;;;;;24.08;14.88;;;;;;;10.41;100.00;103615.22;5070048;28;20139;-69
2021/03/20 09:41:21;;;;;;;24.05;14.70;;;;;;;10.45;100.00;103613.84;5069712;28;20107;-69
2021/03/20 09:44:14;;;;;;;26.77;15.68;;;;;;;10.49;100.00;103617.94;5052486;28;20124;-67
2021/03/20 09:46:39;;;;;;;23.50;14.48;;;;;;;10.51;100.00;103621.34;5059514;28;20571;-68
2021/03/20 09:49:11;;;;;;;26.80;15.88;;;;;;;10.52;100.00;103623.03;5051576;28;20127;-69
2021/03/20 09:51:55;;;;;;;28.05;15.82;;;;;;;10.55;100.00;103616.38;5069485;28;20432;-68
2021/03/20 09:54:23;;;;;;;26.77;16.73;;;;;;;10.57;100.00;103614.31;5069594;28;20502;-68
2021/03/20 09:57:18;;;;;;;25.48;16.35;;;;;;;10.60;100.00;103613.97;5051687;28;20036;-69
2021/03/20 09:59:43;;;;;;;25.23;15.43;;;;;;;10.66;100.00;103626.09;5073151;28;20062;-67
2021/03/20 10:02:09;;;;;;;31.25;16.77;;;;;;;10.66;100.00;103613.28;5073081;28;20032;-69
2021/03/20 10:04:34;;;;;;;25.45;16.42;;;;;;;10.72;100.00;103617.19;5073049;28;20028;-69
2021/03/20 10:07:12;;;;;;;26.48;16.67;;;;;;;10.74;100.00;103617.84;5072988;28;20043;-69
2021/03/20 10:10:10;;;;;;;27.00;16.83;;;;;;;10.78;100.00;103617.34;5055451;28;20040;-67
2021/03/20 10:12:43;;;;;;;26.48;16.73;;;;;;;10.84;100.00;103610.31;5055451;28;20036;-68
2021/03/20 10:15:14;;;;;;;27.98;16.60;;;;;;;10.88;100.00;103622.59;5073433;28;20391;-67
2021/03/20 10:18:00;;;;;;;30.92;16.55;;;;;;;10.95;100.00;103606.34;5073359;28;20028;-67
2021/03/20 10:20:56;;;;;;;27.52;16.58;;;;;;;11.02;100.00;103601.88;5073356;28;20413;-68
2021/03/20 10:23:52;;;;;;;26.15;16.80;;;;;;;11.02;100.00;103605.47;5073297;28;20041;-69
2021/03/20 10:26:39;;;;;;;26.42;17.23;;;;;;;11.09;100.00;103603.69;5073641;28;20028;-67
2021/03/20 10:29:17;;;;;;;25.92;17.00;;;;;;;11.10;100.00;103608.13;5073137;28;20036;-67
2021/03/20 10:31:47;;;;;;;30.33;18.02;;;;;;;11.14;100.00;103601.31;5073219;28;20387;-69
2021/03/20 10:34:20;;;;;;;29.13;17.67;;;;;;;11.20;100.00;103596.13;5073241;28;20036;-69
2021/03/20 10:36:48;;;;;;;28.60;17.85;;;;;;;11.24;100.00;103594.75;5073060;28;20085;-69
2021/03/20 10:39:25;;;;;;;26.65;16.80;;;;;;;11.28;100.00;103604.28;5072791;28;20470;-69
2021/03/20 10:41:55;;;;;;;31.23;17.10;;;;;;;11.34;100.00;103595.38;5073094;28;20090;-68
2021/03/20 10:44:37;;;;;;;26.02;17.25;;;;;;;11.41;100.00;103585.41;5072882;28;20036;-67
2021/03/20 10:47:31;;;;;;;25.05;17.13;;;;;;;11.48;100.00;103581.78;5072791;28;20474;-68
2021/03/20 10:50:05;;;;;;;28.17;17.23;;;;;;;11.54;100.00;103591.16;5060922;28;20060;-69
2021/03/20 10:52:41;;;;;;;24.13;16.88;;;;;;;11.63;100.00;103579.13;5072804;28;20029;-68
2021/03/20 10:55:20;;;;;;;24.05;16.25;;;;;;;11.73;100.00;103579.72;5072819;28;20036;-68
2021/03/20 10:57:47;;;;;;;26.10;17.70;;;;;;;11.82;100.00;103579.69;5072711;28;20033;-68
2021/03/20 11:00:38;;;;;;;26.08;18.02;;;;;;;11.89;100.00;103576.03;5072681;28;20043;-69
2021/03/20 11:03:38;;;;;;;24.58;17.05;;;;;;;12.00;100.00;103570.13;5072469;28;20033;-68
2021/03/20 11:06:18;;;;;;;24.52;16.60;;;;;;;12.04;100.00;103565.09;5072344;28;20368;-69
2021/03/20 11:08:48;;;;;;;25.33;17.52;;;;;;;12.08;100.00;103571.91;5071518;28;20033;-69
2021/03/20 11:11:16;;;;;;;25.20;17.60;;;;;;;12.11;100.00;103576.16;5054413;28;20047;-68
2021/03/20 11:13:49;;;;;;;24.67;16.38;;;;;;;12.12;100.00;103578.72;5072398;28;20036;-68
2021/03/20 11:16:19;;;;;;;23.98;17.52;;;;;;;12.12;100.00;103570.50;5054543;28;20066;-68
2021/03/20 11:18:50;;;;;;;21.30;15.88;;;;;;;12.09;100.00;103570.88;5072307;28;20028;-69
2021/03/20 11:21:25;;;;;;;18.02;14.35;;;;;;;12.06;100.00;103563.88;5072200;28;20056;-68
2021/03/20 11:24:16;;;;;;;20.17;14.80;;;;;;;12.04;100.00;103570.59;5072076;28;20040;-68
2021/03/20 11:26:47;;;;;;;21.60;14.15;;;;;;;12.01;100.00;103573.69;5072202;28;20494;-68
2021/03/20 11:29:17;;;;;;;20.48;15.57;;;;;;;12.00;100.00;103574.75;5072090;28;20104;-68
2021/03/20 11:31:48;;;;;;;17.42;13.75;;;;;;;11.98;100.00;103571.34;5072086;28;20039;-70
2021/03/20 11:34:26;;;;;;;19.05;13.60;;;;;;;11.96;100.00;103562.44;5071722;28;20040;-68
2021/03/20 11:36:53;;;;;;;20.70;13.73;;;;;;;11.94;100.00;103569.97;5072022;28;20119;-68
2021/03/20 11:39:19;;;;;;;19.65;13.45;;;;;;;11.90;100.00;103560.44;5071728;28;20044;-68
2021/03/20 11:41:46;;;;;;;18.95;13.05;;;;;;;11.93;100.00;103560.06;5071813;28;20040;-67
2021/03/20 11:44:26;;;;;;;18.67;14.30;;;;;;;11.97;100.00;103561.38;5071641;28;20098;-68
2021/03/20 11:47:01;;;;;;;18.30;13.32;;;;;;;12.04;100.00;103548.66;5071571;28;20081;-70